createdAt,value
2023-01-19T00:00:44.632Z,67.73
2023-01-19T00:03:11.124Z,67.75
2023-01-19T00:05:37.635Z,67.38
2023-01-19T00:08:04.563Z,67.43
2023-01-19T00:10:32.645Z,67.77
2023-01-19T00:12:59.492Z,67.97
2023-01-19T00:15:26.152Z,68.11
2023-01-19T00:17:52.689Z,68.28
2023-01-19T00:20:19.174Z,69.42
2023-01-19T00:22:45.731Z,69.35
2023-01-19T00:25:12.263Z,69.30
2023-01-19T00:27:40.016Z,69.84
2023-01-19T00:30:08.103Z,69.01
2023-01-19T00:32:34.652Z,68.70
2023-01-19T00:35:01.277Z,68.69
2023-01-19T00:37:27.795Z,68.58
2023-01-19T00:39:54.295Z,68.42
2023-01-19T00:42:20.784Z,68.49
2023-01-19T00:44:48.802Z,68.50
2023-01-19T00:47:15.273Z,68.92
2023-01-19T00:49:42.005Z,68.88
2023-01-19T00:52:08.621Z,68.85
2023-01-19T00:54:35.292Z,70.20
2023-01-19T00:57:02.509Z,69.57
2023-01-19T00:59:29.041Z,69.67
2023-01-19T01:01:57.291Z,68.99
2023-01-19T01:04:23.944Z,68.74
2023-01-19T01:06:50.432Z,68.70
2023-01-19T01:09:16.956Z,68.08
2023-01-19T01:11:43.567Z,68.36
2023-01-19T01:14:11.927Z,68.37
2023-01-19T01:16:38.651Z,68.26
2023-01-19T01:19:06.577Z,67.99
2023-01-19T01:21:33.151Z,68.18
2023-01-19T01:23:59.711Z,67.92
2023-01-19T01:26:27.153Z,67.68
2023-01-19T01:28:54.326Z,67.96
2023-01-19T01:31:20.938Z,67.92
2023-01-19T01:33:47.516Z,68.19
2023-01-19T01:36:15.354Z,67.69
2023-01-19T01:38:42.210Z,67.83
2023-01-19T01:41:08.886Z,67.76
2023-01-19T01:43:46.611Z,68.00
2023-01-19T01:46:13.940Z,67.83
2023-01-19T01:48:43.175Z,67.66
2023-01-19T01:51:12.591Z,67.47
2023-01-19T01:53:42.053Z,67.50
2023-01-19T01:56:12.314Z,67.39
2023-01-19T01:58:39.936Z,67.33
2023-01-19T02:01:07.573Z,67.63
2023-01-19T02:03:34.256Z,67.60
2023-01-19T02:06:04.903Z,67.88
2023-01-19T02:08:37.661Z,68.62
2023-01-19T02:11:06.749Z,68.28
2023-01-19T02:13:35.757Z,68.33
2023-01-19T02:16:07.429Z,67.92
2023-01-19T02:18:35.032Z,67.82
2023-01-19T02:21:11.011Z,67.30
2023-01-19T02:23:42.707Z,67.36
2023-01-19T02:26:12.102Z,67.38
2023-01-19T02:28:42.190Z,67.42
2023-01-19T02:31:08.909Z,66.99
2023-01-19T02:33:35.393Z,67.31
2023-01-19T02:36:02.900Z,68.00
2023-01-19T02:38:30.844Z,67.18
2023-01-19T02:41:01.243Z,67.34
2023-01-19T02:43:30.261Z,68.14
2023-01-19T02:45:57.018Z,67.90
2023-01-19T02:48:23.515Z,68.30
2023-01-19T02:50:53.196Z,67.48
2023-01-19T02:54:10.436Z,67.44
2023-01-19T02:57:10.634Z,67.16
2023-01-19T02:59:53.493Z,67.41
2023-01-19T03:02:32.238Z,67.69
2023-01-19T03:05:14.787Z,67.37
2023-01-19T03:07:49.505Z,67.50
2023-01-19T03:10:24.457Z,67.22
2023-01-19T03:12:56.610Z,68.73
2023-01-19T03:15:29.327Z,67.92
2023-01-19T03:17:58.064Z,67.41
2023-01-19T03:20:25.347Z,67.40
2023-01-19T03:22:59.305Z,67.81
2023-01-19T03:25:28.057Z,68.01
2023-01-19T03:27:57.894Z,68.28
2023-01-19T03:30:28.910Z,68.18
2023-01-19T03:33:00.059Z,68.13
2023-01-19T03:35:31.571Z,68.22
2023-01-19T03:38:00.149Z,68.51
2023-01-19T03:40:29.660Z,67.75
2023-01-19T03:43:00.374Z,68.26
2023-01-19T03:45:27.953Z,67.68
2023-01-19T03:47:55.140Z,67.69
2023-01-19T03:50:25.977Z,67.23
2023-01-19T03:53:01.940Z,66.74
2023-01-19T03:55:29.511Z,66.92
2023-01-19T03:57:57.397Z,66.96
2023-01-19T04:00:23.973Z,67.17
2023-01-19T04:02:50.564Z,67.29
2023-01-19T04:05:17.068Z,67.08
2023-01-19T04:07:43.548Z,67.67
2023-01-19T04:10:11.060Z,67.32
2023-01-19T04:12:37.670Z,67.13
2023-01-19T04:15:07.032Z,67.75
2023-01-19T04:17:33.618Z,68.48
2023-01-19T04:20:00.294Z,68.76
2023-01-19T04:22:26.815Z,69.11
2023-01-19T04:24:53.450Z,69.55
2023-01-19T04:27:19.945Z,69.97
2023-01-19T04:29:46.436Z,70.12
2023-01-19T04:32:14.492Z,70.71
2023-01-19T04:34:40.996Z,71.27
2023-01-19T04:37:07.485Z,71.35
2023-01-19T04:39:34.212Z,71.42
2023-01-19T04:42:01.147Z,72.76
2023-01-19T04:44:28.036Z,72.91
2023-01-19T04:46:54.649Z,73.71
2023-01-19T04:49:22.640Z,72.94
2023-01-19T04:51:49.197Z,73.80
2023-01-19T04:54:15.731Z,73.27
2023-01-19T04:56:42.417Z,74.22
2023-01-19T04:59:08.900Z,74.02
2023-01-19T05:01:35.528Z,74.54
2023-01-19T05:04:02.148Z,74.54
2023-01-19T05:06:29.962Z,73.89
2023-01-19T05:08:56.479Z,74.35
2023-01-19T05:11:23.001Z,74.12
2023-01-19T05:13:51.011Z,74.38
2023-01-19T05:16:18.039Z,74.62
2023-01-19T05:18:44.559Z,73.87
2023-01-19T05:21:11.092Z,73.78
2023-01-19T05:23:39.073Z,73.94
2023-01-19T05:26:05.673Z,73.69
2023-01-19T05:28:33.336Z,73.82
2023-01-19T05:31:00.126Z,74.25
2023-01-19T05:33:27.443Z,74.52
2023-01-19T05:35:54.268Z,73.86
2023-01-19T05:38:34.354Z,74.70
2023-01-19T05:41:03.127Z,74.45
2023-01-19T05:43:29.717Z,74.46
2023-01-19T05:45:56.546Z,74.31
2023-01-19T05:48:23.035Z,74.95
2023-01-19T05:50:49.655Z,74.38
2023-01-19T05:53:16.490Z,74.82
2023-01-19T05:55:43.044Z,74.79
2023-01-19T05:58:11.110Z,74.85
2023-01-19T06:00:37.587Z,75.25
2023-01-19T06:03:04.725Z,75.32
2023-01-19T06:05:31.389Z,75.69
2023-01-19T06:07:57.922Z,75.54
2023-01-19T06:10:24.586Z,75.56
2023-01-19T06:12:51.101Z,75.73
2023-01-19T06:15:19.522Z,75.38
2023-01-19T06:17:48.223Z,74.74
2023-01-19T06:20:14.937Z,75.31
2023-01-19T06:22:41.519Z,75.04
2023-01-19T06:25:08.999Z,74.83
2023-01-19T06:27:56.209Z,74.34
2023-01-19T06:30:39.110Z,74.44
2023-01-19T06:33:15.614Z,74.77
2023-01-19T06:35:43.243Z,75.32
2023-01-19T06:38:27.766Z,74.73
2023-01-19T06:40:55.941Z,74.74
2023-01-19T06:43:35.176Z,74.75
2023-01-19T06:46:03.344Z,74.35
2023-01-19T06:48:30.038Z,73.74
2023-01-19T06:50:58.616Z,74.31
2023-01-19T06:53:26.743Z,74.13
2023-01-19T06:55:53.302Z,74.08
2023-01-19T06:58:20.228Z,74.27
2023-01-19T07:00:49.472Z,73.93
2023-01-19T07:03:21.438Z,73.87
2023-01-19T07:05:51.542Z,74.07
2023-01-19T07:08:18.262Z,73.95
2023-01-19T07:11:25.618Z,73.82
2023-01-19T07:13:32.006Z,73.49
2023-01-19T07:15:58.742Z,73.84
2023-01-19T07:18:26.755Z,74.05
2023-01-19T07:20:53.318Z,73.60
2023-01-19T07:23:19.911Z,74.21
2023-01-19T07:25:46.530Z,73.55
2023-01-19T07:28:13.508Z,73.34
2023-01-19T07:30:56.895Z,73.50
2023-01-19T07:33:23.764Z,73.99
2023-01-19T07:35:52.772Z,73.30
2023-01-19T07:38:25.473Z,73.48
2023-01-19T07:40:52.015Z,72.81
2023-01-19T07:43:18.584Z,73.25
2023-01-19T07:45:45.171Z,73.81
2023-01-19T07:48:11.865Z,73.01
2023-01-19T07:50:38.410Z,73.47
2023-01-19T07:53:09.454Z,72.66
2023-01-19T07:55:36.203Z,72.55
2023-01-19T07:58:03.048Z,72.36
2023-01-19T08:00:29.762Z,72.56
2023-01-19T08:03:00.743Z,72.11
2023-01-19T08:05:28.181Z,71.78
2023-01-19T08:07:54.952Z,72.19
2023-01-19T08:10:26.496Z,71.51
2023-01-19T08:12:59.674Z,71.07
2023-01-19T08:15:26.788Z,71.22
2023-01-19T08:17:57.494Z,71.22
2023-01-19T08:20:24.817Z,70.71
2023-01-19T08:22:51.651Z,71.33
2023-01-19T08:25:18.203Z,70.63
2023-01-19T08:27:46.093Z,70.45
2023-01-19T08:30:13.409Z,70.41
2023-01-19T08:32:39.957Z,70.83
2023-01-19T08:35:07.391Z,70.24
2023-01-19T08:37:34.346Z,70.57
2023-01-19T08:40:00.949Z,70.58
2023-01-19T08:42:27.593Z,70.17
2023-01-19T08:44:58.728Z,69.77
2023-01-19T08:47:25.602Z,70.32
2023-01-19T08:49:52.194Z,69.99
2023-01-19T08:52:18.880Z,70.39
2023-01-19T08:54:45.456Z,69.47
2023-01-19T08:57:12.083Z,68.98
2023-01-19T08:59:38.675Z,68.91
2023-01-19T09:02:06.831Z,69.29
2023-01-19T09:04:33.450Z,68.75
2023-01-19T09:07:00.269Z,68.29
2023-01-19T09:09:26.787Z,68.62
2023-01-19T09:11:54.262Z,68.41
2023-01-19T09:14:20.850Z,68.09
2023-01-19T09:16:47.441Z,68.05
2023-01-19T09:19:15.341Z,68.08
2023-01-19T09:21:41.866Z,67.73
2023-01-19T09:24:08.779Z,67.69
2023-01-19T09:26:35.707Z,67.66
2023-01-19T09:29:02.257Z,68.46
2023-01-19T09:31:28.873Z,67.54
2023-01-19T09:33:55.733Z,68.15
2023-01-19T09:36:23.617Z,68.14
2023-01-19T09:38:53.463Z,67.40
2023-01-19T09:41:22.379Z,67.27
2023-01-19T09:43:52.749Z,67.36
2023-01-19T09:46:37.859Z,67.37
2023-01-19T09:49:12.452Z,68.45
2023-01-19T09:51:44.395Z,67.78
2023-01-19T09:54:15.541Z,68.07
2023-01-19T09:56:43.280Z,67.85
2023-01-19T09:59:20.104Z,67.25
2023-01-19T10:02:01.468Z,66.84
2023-01-19T10:04:31.844Z,67.12
2023-01-19T10:07:31.305Z,66.85
2023-01-19T10:10:09.242Z,66.22
2023-01-19T10:12:43.577Z,65.24
2023-01-19T10:15:20.442Z,65.11
2023-01-19T10:17:58.691Z,65.46
2023-01-19T10:20:29.398Z,67.01
2023-01-19T10:22:59.211Z,67.56
2023-01-19T10:25:27.317Z,67.57
2023-01-19T10:27:53.956Z,68.02
2023-01-19T10:30:24.356Z,68.16
2023-01-19T10:32:51.634Z,68.39
2023-01-19T10:35:20.295Z,68.62
2023-01-19T10:37:47.279Z,69.65
2023-01-19T10:40:26.626Z,69.02
2023-01-19T10:42:53.538Z,68.35
2023-01-19T10:45:23.759Z,68.80
2023-01-19T10:47:50.568Z,68.48
2023-01-19T10:50:24.650Z,68.11
2023-01-19T10:52:52.762Z,67.25
2023-01-19T10:55:27.223Z,67.57
2023-01-19T10:57:53.975Z,67.00
2023-01-19T11:00:33.337Z,66.94
2023-01-19T11:03:00.900Z,66.56
2023-01-19T11:05:29.691Z,66.24
2023-01-19T11:07:56.389Z,66.10
2023-01-19T11:10:26.110Z,65.01
2023-01-19T11:12:59.656Z,65.07
2023-01-19T11:15:31.751Z,64.68
2023-01-19T11:17:58.881Z,64.60
2023-01-19T11:20:28.485Z,64.07
2023-01-19T11:23:06.418Z,62.86
2023-01-19T11:25:36.156Z,62.31
2023-01-19T11:28:03.406Z,62.11
2023-01-19T11:30:30.461Z,63.24
2023-01-19T11:32:57.196Z,63.84
2023-01-19T11:35:36.875Z,63.75
2023-01-19T11:38:18.235Z,64.26
2023-01-19T11:40:53.549Z,63.81
2023-01-19T11:43:21.494Z,63.53
2023-01-19T11:45:48.181Z,63.80
2023-01-19T11:48:23.349Z,64.44
2023-01-19T11:50:50.330Z,64.82
2023-01-19T11:53:20.713Z,64.86
2023-01-19T11:55:54.747Z,64.82
2023-01-19T11:58:21.574Z,65.14
2023-01-19T12:00:53.170Z,65.23
2023-01-19T12:03:24.402Z,65.58
2023-01-19T12:05:55.452Z,65.63
2023-01-19T12:08:25.211Z,66.00
2023-01-19T12:10:56.062Z,66.95
2023-01-19T12:13:27.340Z,66.71
2023-01-19T12:15:58.321Z,66.26
2023-01-19T12:18:30.315Z,65.79
2023-01-19T12:20:56.883Z,65.39
2023-01-19T12:23:32.132Z,66.00
2023-01-19T12:26:28.595Z,65.13
2023-01-19T12:29:01.938Z,64.81
2023-01-19T12:31:28.734Z,64.89
2023-01-19T12:33:55.492Z,65.32
2023-01-19T12:36:36.183Z,65.64
2023-01-19T12:39:06.133Z,65.58
2023-01-19T12:41:36.500Z,65.03
2023-01-19T12:44:31.084Z,63.97
2023-01-19T12:46:58.604Z,63.54
2023-01-19T12:49:27.907Z,63.07
2023-01-19T12:52:11.637Z,63.38
2023-01-19T12:54:42.160Z,63.38
2023-01-19T12:57:20.779Z,63.44
2023-01-19T12:59:54.837Z,63.02
2023-01-19T13:02:52.350Z,62.53
2023-01-19T13:05:38.184Z,63.25
2023-01-19T13:08:21.920Z,63.14
2023-01-19T13:11:19.220Z,63.04
2023-01-19T13:14:29.033Z,62.89
2023-01-19T13:17:02.283Z,63.38
2023-01-19T13:19:54.706Z,63.22
2023-01-19T13:23:11.786Z,63.62
2023-01-19T13:25:39.029Z,63.71
2023-01-19T13:28:13.189Z,64.14
2023-01-19T13:30:55.560Z,63.90
2023-01-19T13:33:25.137Z,63.32
2023-01-19T13:35:54.449Z,62.91
2023-01-19T13:38:23.004Z,63.42
2023-01-19T13:40:49.783Z,63.29
2023-01-19T13:43:18.989Z,62.82
2023-01-19T13:45:53.282Z,63.38
2023-01-19T13:48:22.275Z,63.38
2023-01-19T13:51:00.995Z,63.69
2023-01-19T13:53:28.184Z,63.62
2023-01-19T13:56:17.154Z,64.29
2023-01-19T13:58:43.924Z,63.77
2023-01-19T14:01:22.564Z,64.24
2023-01-19T14:03:49.481Z,63.97
2023-01-19T14:06:22.238Z,63.58
2023-01-19T14:09:05.934Z,64.02
2023-01-19T14:11:33.295Z,64.21
2023-01-19T14:13:59.880Z,64.12
2023-01-19T14:16:27.892Z,64.41
2023-01-19T14:18:59.864Z,64.12
2023-01-19T14:21:38.435Z,63.76
2023-01-19T14:24:20.176Z,64.80
2023-01-19T14:26:48.312Z,64.44
2023-01-19T14:29:23.320Z,64.80
2023-01-19T14:31:52.995Z,64.58
2023-01-19T14:34:30.329Z,64.50
2023-01-19T14:36:57.747Z,64.77
2023-01-19T14:39:27.175Z,65.12
2023-01-19T14:41:57.502Z,64.54
2023-01-19T14:44:28.262Z,64.44
2023-01-19T14:46:57.183Z,64.18
2023-01-19T14:49:30.197Z,64.44
2023-01-19T14:51:57.418Z,64.88
2023-01-19T14:54:30.752Z,65.27
2023-01-19T14:56:57.598Z,65.20
2023-01-19T14:59:24.249Z,65.13
2023-01-19T15:01:50.962Z,65.10
2023-01-19T15:04:18.850Z,65.11
2023-01-19T15:06:45.964Z,65.13
2023-01-19T15:09:13.486Z,64.90
2023-01-19T15:11:41.043Z,64.53
2023-01-19T15:14:13.452Z,64.80
2023-01-19T15:16:40.675Z,65.49
2023-01-19T15:19:11.007Z,65.56
2023-01-19T15:21:39.149Z,65.43
2023-01-19T15:24:06.199Z,65.83
2023-01-19T15:26:32.745Z,66.16
2023-01-19T15:28:59.403Z,65.84
2023-01-19T15:31:26.527Z,66.00
2023-01-19T15:33:53.202Z,65.99
2023-01-19T15:36:21.644Z,66.18
2023-01-19T15:38:49.832Z,66.03
2023-01-19T15:41:23.350Z,65.62
2023-01-19T15:43:50.239Z,65.89
2023-01-19T15:46:20.168Z,66.02
2023-01-19T15:48:46.804Z,65.95
2023-01-19T15:51:14.112Z,66.37
2023-01-19T15:53:40.930Z,66.22
2023-01-19T15:56:14.497Z,66.41
2023-01-19T15:58:41.193Z,66.56
2023-01-19T16:01:12.825Z,66.39
2023-01-19T16:03:39.435Z,66.18
2023-01-19T16:06:06.214Z,65.98
2023-01-19T16:08:32.745Z,66.01
2023-01-19T16:11:03.732Z,66.64
2023-01-19T16:13:31.880Z,66.41
2023-01-19T16:16:02.218Z,66.13
2023-01-19T16:18:28.942Z,66.19
2023-01-19T16:21:25.414Z,66.19
2023-01-19T16:23:52.009Z,65.91
2023-01-19T16:26:27.423Z,65.91
2023-01-19T16:28:58.102Z,65.67
2023-01-19T16:31:25.137Z,66.04
2023-01-19T16:33:51.697Z,66.90
2023-01-19T16:36:20.390Z,66.66
2023-01-19T16:39:07.897Z,66.94
2023-01-19T16:41:49.681Z,67.16
2023-01-19T16:45:00.225Z,67.18
2023-01-19T16:47:50.783Z,67.67
2023-01-19T16:51:16.847Z,67.81
2023-01-19T16:53:59.457Z,68.04
2023-01-19T16:56:35.616Z,67.92
2023-01-19T16:59:04.363Z,68.14
2023-01-19T17:01:32.771Z,68.03
2023-01-19T17:04:03.047Z,68.07
2023-01-19T17:06:30.608Z,67.99
2023-01-19T17:12:58.708Z,67.75
2023-01-19T17:15:25.800Z,67.65
2023-01-19T17:20:50.507Z,67.56
2023-01-19T17:23:17.349Z,67.39
2023-01-19T17:25:51.624Z,67.14
2023-01-19T17:28:18.203Z,67.33
2023-01-19T17:30:47.912Z,67.11
2023-01-19T17:33:14.464Z,67.00
2023-01-19T17:35:42.367Z,67.11
2023-01-19T17:38:08.878Z,67.13
2023-01-19T17:40:38.167Z,67.08
2023-01-19T17:43:04.811Z,67.04
2023-01-19T17:45:34.757Z,67.00
2023-01-19T17:48:02.049Z,66.81
2023-01-19T17:50:28.993Z,66.94
2023-01-19T17:52:57.274Z,66.88
2023-01-19T17:55:23.897Z,66.81
2023-01-19T17:57:50.519Z,66.85
2023-01-19T18:00:18.228Z,67.28
2023-01-19T18:02:44.808Z,67.15
2023-01-19T18:05:11.489Z,67.11
2023-01-19T18:07:38.231Z,67.16
2023-01-19T18:10:07.755Z,67.30
2023-01-19T18:12:34.616Z,67.45
2023-01-19T18:15:01.184Z,67.48
2023-01-19T18:17:27.667Z,67.39
2023-01-19T18:19:54.246Z,67.30
2023-01-19T18:22:20.861Z,67.49
2023-01-19T18:24:47.380Z,67.60
2023-01-19T18:27:15.663Z,67.94
2023-01-19T18:29:42.313Z,67.94
2023-01-19T18:32:09.473Z,67.56
2023-01-19T18:34:36.633Z,67.25
2023-01-19T18:37:03.383Z,67.38
2023-01-19T18:39:30.072Z,68.18
2023-01-19T18:41:57.383Z,68.17
2023-01-19T18:44:25.524Z,68.68
2023-01-19T18:46:52.101Z,69.21
2023-01-19T18:49:20.998Z,69.14
2023-01-19T18:51:47.556Z,69.38
2023-01-19T18:54:15.133Z,69.19
2023-01-19T18:57:46.411Z,69.71
2023-01-19T19:00:14.722Z,69.53
2023-01-19T19:02:43.938Z,69.50
2023-01-19T19:05:23.270Z,69.65
2023-01-19T19:07:50.481Z,69.70
2023-01-19T19:10:17.488Z,70.13
2023-01-19T19:12:45.092Z,70.06
2023-01-19T19:15:13.332Z,69.82
2023-01-19T19:17:50.407Z,69.67
2023-01-19T19:20:18.071Z,69.26
2023-01-19T19:22:44.671Z,68.97
2023-01-19T19:25:11.515Z,68.98
2023-01-19T19:31:22.642Z,68.09
2023-01-19T19:34:10.015Z,68.31
2023-01-19T19:36:36.629Z,67.92
2023-01-19T19:39:03.679Z,67.67
2023-01-19T19:41:30.922Z,67.27
2023-01-19T19:43:58.194Z,67.59
2023-01-19T19:46:27.292Z,67.33
2023-01-19T19:48:54.589Z,67.31
2023-01-19T19:51:24.124Z,67.30
2023-01-19T19:53:52.164Z,67.22
2023-01-19T19:56:20.643Z,67.09
2023-01-19T19:58:48.030Z,67.07
2023-01-19T20:01:17.152Z,66.74
2023-01-19T20:03:46.349Z,66.76
2023-01-19T20:06:14.991Z,66.67
2023-01-19T20:08:41.694Z,67.20
2023-01-19T20:11:10.663Z,67.25
2023-01-19T20:13:38.657Z,67.15
2023-01-19T20:16:07.509Z,67.24
2023-01-19T20:18:34.468Z,66.80
2023-01-19T20:21:11.129Z,66.88
2023-01-19T20:23:38.127Z,66.69
2023-01-19T20:26:06.578Z,67.05
2023-01-19T20:28:34.693Z,66.95
2023-01-19T20:31:13.880Z,66.71
2023-01-19T20:33:44.042Z,66.63
2023-01-19T20:36:14.622Z,66.50
2023-01-19T20:38:42.294Z,66.51
2023-01-19T20:41:11.092Z,66.63
2023-01-19T20:43:38.223Z,66.36
2023-01-19T20:46:05.436Z,66.27
2023-01-19T20:48:32.497Z,66.19
2023-01-19T20:50:59.370Z,66.54
2023-01-19T20:53:29.455Z,66.59
2023-01-19T20:55:56.261Z,66.33
2023-01-19T20:58:23.853Z,66.43
2023-01-19T21:00:52.246Z,66.45
2023-01-19T21:03:19.206Z,66.38
2023-01-19T21:05:49.013Z,66.51
2023-01-19T21:08:16.386Z,66.15
2023-01-19T21:10:44.832Z,66.48
2023-01-19T21:13:11.569Z,66.20
2023-01-19T21:15:38.822Z,66.51
2023-01-19T21:18:05.445Z,66.63
2023-01-19T21:20:32.172Z,66.44
2023-01-19T21:23:00.244Z,66.24
2023-01-19T21:25:26.938Z,66.27
2023-01-19T21:27:55.499Z,66.49
2023-01-19T21:30:22.180Z,66.63
2023-01-19T21:32:49.035Z,66.35
2023-01-19T21:35:16.391Z,66.31
2023-01-19T21:37:43.037Z,66.56
2023-01-19T21:40:12.291Z,65.92
2023-01-19T21:42:39.061Z,65.84
2023-01-19T21:45:08.323Z,66.15
2023-01-19T21:47:36.140Z,66.06
2023-01-19T21:50:03.499Z,66.49
2023-01-19T21:52:30.067Z,66.62
2023-01-19T21:54:56.621Z,66.50
2023-01-19T21:57:23.640Z,66.32
2023-01-19T21:59:51.946Z,66.33
2023-01-19T22:02:37.153Z,66.23
2023-01-19T22:05:05.769Z,66.42
2023-01-19T22:07:32.524Z,66.24
2023-01-19T22:10:00.363Z,66.48
2023-01-19T22:12:29.510Z,66.67
2023-01-19T22:14:56.489Z,66.23
2023-01-19T22:17:24.497Z,66.23
2023-01-19T22:19:51.223Z,66.29
2023-01-19T22:22:17.750Z,66.40
2023-01-19T22:24:44.430Z,66.64
2023-01-19T22:27:11.177Z,66.80
2023-01-19T22:29:37.710Z,66.32
2023-01-19T22:32:05.247Z,66.53
2023-01-19T22:34:33.645Z,66.84
2023-01-19T22:37:00.856Z,66.91
2023-01-19T22:39:27.540Z,67.02
2023-01-19T22:41:54.373Z,66.78
2023-01-19T22:44:21.997Z,66.58
2023-01-19T22:46:51.204Z,66.99
2023-01-19T22:49:18.467Z,67.04
2023-01-19T22:51:47.167Z,66.95
2023-01-19T22:54:14.098Z,67.00
2023-01-19T22:56:41.370Z,67.76
2023-01-19T22:59:08.749Z,68.06
2023-01-19T23:01:37.347Z,68.07
2023-01-19T23:04:05.604Z,68.28
2023-01-19T23:06:35.348Z,68.88
2023-01-19T23:09:06.021Z,68.50
2023-01-19T23:11:35.969Z,68.52
2023-01-19T23:14:03.614Z,68.76
2023-01-19T23:16:32.222Z,68.24
2023-01-19T23:18:59.276Z,68.07
2023-01-19T23:21:30.453Z,67.90
2023-01-19T23:23:58.995Z,67.69
2023-01-19T23:26:28.013Z,67.67
2023-01-19T23:28:56.803Z,67.64
2023-01-19T23:31:25.554Z,67.52
2023-01-19T23:33:53.889Z,67.20
2023-01-19T23:36:22.852Z,67.31
2023-01-19T23:38:53.783Z,67.88
2023-01-19T23:41:21.264Z,67.29
2023-01-19T23:43:49.730Z,67.33
2023-01-19T23:46:18.321Z,67.61
2023-01-19T23:48:45.240Z,67.70
2023-01-19T23:51:14.200Z,68.19
2023-01-19T23:53:41.137Z,68.09
2023-01-19T23:56:12.258Z,68.45
2023-01-19T23:58:39.543Z,67.99
